createdAt,value
2022-08-21T11:22:21.175Z,483.75
2022-08-21T11:23:21.248Z,483.75
2022-08-21T11:24:21.123Z,478.13
2022-08-21T11:25:21.120Z,495.00
2022-08-21T11:26:21.101Z,489.38
2022-08-21T11:27:21.110Z,483.75
2022-08-21T11:28:21.086Z,483.75
2022-08-21T11:29:21.068Z,483.75
2022-08-21T11:30:21.055Z,489.38
2022-08-21T11:31:21.040Z,489.38
2022-08-21T11:32:21.048Z,483.75
2022-08-21T11:33:21.014Z,478.13
2022-08-21T11:34:21.924Z,483.75
2022-08-21T11:35:20.987Z,483.75
2022-08-21T11:36:20.990Z,489.38
2022-08-21T11:37:20.981Z,495.00
2022-08-21T11:38:23.255Z,489.38
2022-08-21T11:39:20.995Z,489.38
2022-08-21T11:40:20.988Z,478.13
2022-08-21T11:41:21.002Z,483.75
2022-08-21T11:42:20.921Z,478.13
2022-08-21T11:43:20.897Z,483.75
2022-08-21T11:44:20.889Z,483.75
2022-08-21T11:45:20.885Z,478.13
2022-08-21T11:46:20.866Z,472.50
2022-08-21T11:47:20.887Z,478.13
2022-08-21T11:48:20.852Z,478.13
2022-08-21T11:49:20.831Z,478.13
2022-08-21T11:50:34.457Z,472.50
2022-08-21T11:51:20.812Z,478.13
2022-08-21T11:52:20.827Z,478.13
2022-08-21T11:53:20.798Z,466.88
2022-08-21T11:54:20.777Z,466.88
2022-08-21T11:55:23.783Z,461.25
2022-08-21T11:56:20.764Z,466.88
2022-08-21T11:57:20.761Z,461.25
2022-08-21T11:58:20.746Z,455.63
2022-08-21T11:59:20.736Z,455.63
2022-08-21T12:00:20.725Z,455.63
2022-08-21T12:01:20.708Z,461.25
2022-08-21T12:02:20.788Z,461.25
2022-08-21T12:03:20.691Z,466.88
2022-08-21T12:04:20.674Z,466.88
2022-08-21T12:05:20.674Z,472.50
2022-08-21T12:06:24.316Z,472.50
2022-08-21T12:07:20.656Z,472.50
2022-08-21T12:08:20.640Z,472.50
2022-08-21T12:09:20.635Z,472.50
2022-08-21T12:10:20.619Z,472.50
2022-08-21T12:11:20.603Z,466.88
2022-08-21T12:12:20.620Z,461.25
2022-08-21T12:13:20.592Z,466.88
2022-08-21T12:14:20.571Z,466.88
2022-08-21T12:15:20.564Z,461.25
2022-08-21T12:16:20.550Z,461.25
2022-08-21T12:17:20.675Z,450.00
2022-08-21T12:18:20.534Z,461.25
2022-08-21T12:19:20.524Z,466.88
2022-08-21T12:20:20.511Z,472.50
2022-08-21T12:21:20.511Z,489.38
2022-08-21T12:22:20.497Z,478.13
2022-08-21T12:23:20.496Z,489.38
2022-08-21T12:24:20.481Z,495.00
2022-08-21T12:25:21.925Z,489.38
2022-08-21T12:26:20.452Z,466.88
2022-08-21T12:27:20.442Z,483.75
2022-08-21T12:28:20.453Z,489.38
2022-08-21T12:29:20.425Z,483.75
2022-08-21T12:30:20.423Z,483.75
2022-08-21T12:31:20.403Z,483.75
2022-08-21T12:32:20.459Z,483.75
2022-08-21T12:33:20.406Z,472.50
2022-08-21T12:34:20.389Z,483.75
2022-08-21T12:35:25.167Z,478.13
2022-08-21T12:36:20.362Z,511.88
2022-08-21T12:37:20.365Z,511.88
2022-08-21T12:38:20.343Z,495.00
2022-08-21T12:39:20.339Z,489.38
2022-08-21T12:40:20.464Z,495.00
2022-08-21T12:41:20.313Z,495.00
2022-08-21T12:42:20.305Z,450.00
2022-08-21T12:43:20.296Z,511.88
2022-08-21T12:44:20.289Z,506.25
2022-08-21T12:45:20.282Z,517.50
2022-08-21T12:46:20.267Z,523.13
2022-08-21T12:47:20.290Z,540.00
2022-08-21T12:48:20.240Z,534.38
2022-08-21T12:49:20.251Z,472.50
2022-08-21T12:50:20.222Z,517.50
2022-08-21T12:51:20.228Z,528.75
2022-08-21T12:52:20.216Z,545.63
2022-08-21T12:53:20.823Z,556.88
2022-08-21T12:54:20.199Z,556.88
2022-08-21T12:55:20.188Z,562.50
2022-08-21T12:56:20.166Z,579.38
2022-08-21T12:57:20.161Z,585.00
2022-08-21T12:58:20.162Z,579.38
2022-08-21T12:59:20.160Z,590.63
2022-08-21T13:00:20.154Z,590.63
2022-08-21T13:01:20.171Z,607.50
2022-08-21T13:02:20.126Z,635.63
2022-08-21T13:03:20.120Z,663.75
2022-08-21T13:04:20.107Z,680.63
2022-08-21T13:05:20.101Z,680.63
2022-08-21T13:06:20.084Z,663.75
2022-08-21T13:07:20.076Z,635.63
2022-08-21T13:08:20.063Z,540.00
2022-08-21T13:09:20.076Z,528.75
2022-08-21T13:10:56.378Z,641.25
2022-08-21T13:11:56.361Z,675.00
2022-08-21T13:12:56.365Z,725.63
2022-08-21T13:13:59.099Z,697.50
2022-08-21T13:14:56.340Z,731.25
2022-08-21T13:15:56.333Z,776.25
2022-08-21T13:16:56.318Z,956.25
2022-08-21T13:17:56.323Z,2053.13
2022-08-21T13:18:56.316Z,2925.00
2022-08-21T13:19:56.309Z,2655.00
2022-08-21T13:20:56.297Z,1659.38
2022-08-21T13:21:56.287Z,2070.00
2022-08-21T13:24:25.500Z,1395.00
2022-08-21T13:25:07.483Z,2761.88
2022-08-21T13:26:06.878Z,3178.13
2022-08-21T13:27:06.868Z,3448.13
2022-08-21T13:28:06.860Z,3391.88
2022-08-21T13:29:06.863Z,3217.50
2022-08-21T13:30:06.833Z,3256.88
2022-08-21T13:31:06.832Z,3172.50
2022-08-21T13:32:06.824Z,3088.13
2022-08-21T13:33:10.951Z,3296.25
2022-08-21T13:34:06.811Z,3273.75
2022-08-21T13:35:06.791Z,3138.75
2022-08-21T13:36:06.783Z,3256.88
2022-08-21T13:37:06.806Z,3144.38
2022-08-21T13:38:06.770Z,2936.25
2022-08-21T13:39:06.787Z,2868.75
2022-08-21T13:40:06.813Z,3003.75
2022-08-21T13:41:06.749Z,3076.88
2022-08-21T13:42:06.748Z,3054.38
2022-08-21T13:43:06.744Z,3318.75
2022-08-21T13:44:06.760Z,3431.25
2022-08-21T13:45:06.731Z,3510.00
2022-08-21T13:46:06.710Z,3290.63
2022-08-21T13:47:06.715Z,3515.63
2022-08-21T13:48:06.915Z,1456.88
2022-08-21T13:49:06.707Z,3172.50
2022-08-21T13:50:06.687Z,3144.38
2022-08-21T13:51:06.680Z,3571.88
2022-08-21T13:52:06.680Z,3538.13
2022-08-21T13:53:06.674Z,3622.50
2022-08-21T13:54:06.658Z,3650.63
2022-08-21T13:55:06.661Z,3403.13
2022-08-21T13:56:06.638Z,3071.25
2022-08-21T13:57:33.024Z,2638.13
2022-08-21T13:58:32.999Z,2581.88
2022-08-21T13:59:33.012Z,2356.88
2022-08-21T14:00:33.000Z,2390.63
2022-08-21T14:01:33.069Z,2328.75
2022-08-21T14:02:32.985Z,2295.00
2022-08-21T14:03:32.976Z,2160.00
2022-08-21T14:04:32.969Z,2008.13
2022-08-21T14:05:32.966Z,1996.88
2022-08-21T14:06:32.957Z,1985.63
2022-08-21T14:07:32.941Z,1985.63
2022-08-21T14:08:32.938Z,2025.00
2022-08-21T14:09:32.933Z,2041.88
2022-08-21T14:10:32.946Z,1974.38
2022-08-21T14:11:32.926Z,1687.50
2022-08-21T14:12:32.912Z,675.00
2022-08-21T14:13:32.912Z,1411.88
2022-08-21T14:14:32.906Z,866.25
2022-08-21T14:15:32.842Z,1991.25
2022-08-21T14:16:32.818Z,1760.63
2022-08-21T14:17:33.731Z,1445.63
2022-08-21T14:18:32.804Z,1800.00
2022-08-21T14:19:32.800Z,1816.88
2022-08-21T14:20:32.815Z,1968.75
2022-08-21T14:21:32.791Z,1985.63
2022-08-21T14:22:32.776Z,2070.00
2022-08-21T14:23:32.786Z,2300.63
2022-08-21T14:24:36.609Z,2593.13
2022-08-21T14:25:32.784Z,2649.38
2022-08-21T14:26:32.761Z,2362.50
2022-08-21T14:27:32.749Z,2621.25
2022-08-21T14:28:32.745Z,2761.88
2022-08-21T14:29:34.480Z,2463.75
2022-08-21T14:30:32.748Z,2278.13
2022-08-21T14:31:32.737Z,663.75
2022-08-21T14:36:59.525Z,703.13
2022-08-21T14:37:59.514Z,2176.88
2022-08-21T14:38:59.506Z,2126.25
2022-08-21T14:39:59.604Z,2002.50
2022-08-21T14:40:59.490Z,2030.63
2022-08-21T14:41:59.478Z,1726.88
2022-08-21T14:42:59.604Z,1687.50
2022-08-21T14:44:06.094Z,1665.00
2022-08-21T14:44:59.478Z,1203.75
2022-08-21T14:45:59.453Z,1243.13
2022-08-21T14:46:59.444Z,1085.63
2022-08-21T14:47:59.437Z,1102.50
2022-08-21T14:48:59.438Z,1181.25
2022-08-21T14:49:59.447Z,1293.75
2022-08-21T14:51:00.638Z,1395.00
2022-08-21T14:51:59.569Z,1119.38
2022-08-21T14:52:59.611Z,1068.75
2022-08-21T14:53:59.407Z,1096.88
2022-08-21T14:54:59.408Z,1040.63
2022-08-21T14:55:59.380Z,1136.25
2022-08-21T14:56:59.376Z,1108.13
2022-08-21T14:57:59.367Z,894.38
2022-08-21T14:58:59.368Z,939.38
2022-08-21T15:00:01.877Z,1035.00
2022-08-21T15:00:59.437Z,1074.38
2022-08-21T15:01:59.342Z,1040.63
2022-08-21T15:02:59.541Z,1102.50
2022-08-21T15:03:59.337Z,1220.63
2022-08-21T15:04:59.323Z,1220.63
2022-08-21T15:05:59.308Z,1035.00
2022-08-21T15:06:59.296Z,855.00
2022-08-21T15:07:59.304Z,765.00
2022-08-21T15:08:59.274Z,770.63
2022-08-21T15:09:59.292Z,855.00
2022-08-21T15:11:11.452Z,978.75
2022-08-21T15:11:59.255Z,950.63
2022-08-21T15:12:59.436Z,871.88
2022-08-21T15:13:59.247Z,888.75
2022-08-21T15:14:59.244Z,838.13
2022-08-21T15:15:59.219Z,1006.88
2022-08-21T15:16:59.208Z,1215.00
2022-08-21T15:17:59.214Z,1231.88
2022-08-21T15:18:59.193Z,1530.00
2022-08-21T15:19:59.218Z,1850.63
2022-08-21T15:20:59.182Z,1580.63
2022-08-21T15:21:59.180Z,1681.88
2022-08-21T15:22:59.326Z,1608.75
2022-08-21T15:23:59.151Z,1743.75
2022-08-21T15:24:59.159Z,2182.50
2022-08-21T15:25:59.870Z,2283.75
2022-08-21T15:26:59.120Z,2098.13
2022-08-21T15:27:59.129Z,1726.88
2022-08-21T15:28:59.118Z,1895.63
2022-08-21T15:29:59.118Z,1800.00
2022-08-21T15:30:59.096Z,1783.13
2022-08-21T15:31:59.083Z,1749.38
2022-08-21T15:32:59.255Z,1636.88
2022-08-21T15:33:59.067Z,1445.63
2022-08-21T15:34:59.070Z,1434.38
2022-08-21T15:35:59.067Z,1260.00
2022-08-21T15:36:59.046Z,1068.75
2022-08-21T15:37:59.052Z,877.50
2022-08-21T15:38:59.042Z,770.63
2022-08-21T16:38:22.025Z,984.38
2022-08-21T16:39:21.935Z,1299.38
2022-08-21T16:40:22.016Z,1423.13
2022-08-21T16:41:21.923Z,1451.25
2022-08-21T16:42:21.905Z,990.00
